createdAt,value
2019-05-30T00:01:05.714Z,41.50
2019-05-30T00:03:34.119Z,40.20
2019-05-30T00:06:02.550Z,41.63
2019-05-30T00:08:30.967Z,40.80
2019-05-30T00:11:00.532Z,40.90
2019-05-30T00:13:29.082Z,40.70
2019-05-30T00:15:58.648Z,41.10
2019-05-30T00:18:27.208Z,42.20
2019-05-30T00:20:56.675Z,44.30
2019-05-30T00:23:25.284Z,42.30
2019-05-30T00:25:55.135Z,40.90
2019-05-30T00:28:23.705Z,41.90
2019-05-30T00:30:52.150Z,41.93
2019-05-30T00:33:20.556Z,41.57
2019-05-30T00:35:48.965Z,40.37
2019-05-30T00:38:17.391Z,41.60
2019-05-30T00:40:45.797Z,40.60
2019-05-30T00:43:14.231Z,41.13
2019-05-30T00:45:42.639Z,41.30
2019-05-30T00:48:11.067Z,41.70
2019-05-30T00:50:39.474Z,41.53
2019-05-30T00:53:07.905Z,41.50
2019-05-30T00:55:36.315Z,42.90
2019-05-30T00:58:04.891Z,42.17
2019-05-30T01:00:43.177Z,41.43
2019-05-30T01:03:06.473Z,40.23
2019-05-30T01:05:33.697Z,41.03
2019-05-30T01:08:03.318Z,40.60
2019-05-30T01:10:31.788Z,40.60
2019-05-30T01:13:01.357Z,40.87
2019-05-30T01:15:29.983Z,40.30
2019-05-30T01:17:59.063Z,44.47
2019-05-30T01:20:27.573Z,44.77
2019-05-30T01:22:57.004Z,41.77
2019-05-30T01:25:25.485Z,40.70
2019-05-30T01:27:53.923Z,46.13
2019-05-30T01:30:22.406Z,41.63
2019-05-30T01:32:50.834Z,42.23
2019-05-30T01:35:19.314Z,42.73
2019-05-30T01:37:47.743Z,41.77
2019-05-30T01:40:16.329Z,41.87
2019-05-30T01:42:44.763Z,40.90
2019-05-30T01:45:13.226Z,42.00
2019-05-30T01:47:41.673Z,42.83
2019-05-30T01:50:10.799Z,41.07
2019-05-30T01:52:39.349Z,44.70
2019-05-30T01:55:09.144Z,41.30
2019-05-30T01:57:37.941Z,41.80
2019-05-30T02:00:21.287Z,41.70
2019-05-30T02:02:47.203Z,40.77
2019-05-30T02:05:15.974Z,40.83
2019-05-30T02:07:44.381Z,43.50
2019-05-30T02:10:15.442Z,40.13
2019-05-30T02:12:43.848Z,40.43
2019-05-30T02:15:12.345Z,40.23
2019-05-30T02:17:40.819Z,41.07
2019-05-30T02:20:10.145Z,43.90
2019-05-30T02:22:38.677Z,40.10
2019-05-30T02:25:08.258Z,43.53
2019-05-30T02:27:36.737Z,40.90
2019-05-30T02:30:10.771Z,40.43
2019-05-30T02:32:37.424Z,40.90
2019-05-30T02:35:07.872Z,40.27
2019-05-30T02:37:36.922Z,43.87
2019-05-30T02:40:09.949Z,41.27
2019-05-30T02:42:36.886Z,42.37
2019-05-30T02:45:07.981Z,42.40
2019-05-30T02:47:37.364Z,43.30
2019-05-30T02:50:11.487Z,41.37
2019-05-30T02:52:40.223Z,41.77
2019-05-30T02:55:10.945Z,41.30
2019-05-30T02:57:38.949Z,42.13
2019-05-30T03:00:12.446Z,41.40
2019-05-30T03:02:38.219Z,42.67
2019-05-30T03:05:10.914Z,41.57
2019-05-30T03:07:37.191Z,42.80
2019-05-30T03:10:09.415Z,40.73
2019-05-30T03:12:37.431Z,41.53
2019-05-30T03:15:09.251Z,43.30
2019-05-30T03:17:37.133Z,42.40
2019-05-30T03:20:18.012Z,44.30
2019-05-30T03:22:36.569Z,43.20
2019-05-30T03:25:07.443Z,43.10
2019-05-30T03:27:35.870Z,45.17
2019-05-30T03:30:13.451Z,44.37
2019-05-30T03:33:04.117Z,43.07
2019-05-30T03:35:15.244Z,42.97
2019-05-30T03:37:37.642Z,42.47
2019-05-30T03:40:07.185Z,43.37
2019-05-30T03:42:35.689Z,43.13
2019-05-30T03:45:08.403Z,41.97
2019-05-30T03:47:38.367Z,42.97
2019-05-30T03:50:09.049Z,41.67
2019-05-30T03:52:37.448Z,43.97
2019-05-30T03:55:09.240Z,42.47
2019-05-30T03:57:43.349Z,41.90
2019-05-30T04:00:20.767Z,41.13
2019-05-30T04:02:58.320Z,45.43
2019-05-30T04:05:37.740Z,41.00
2019-05-30T04:08:07.234Z,43.50
2019-05-30T04:10:39.192Z,42.20
2019-05-30T04:13:18.768Z,45.60
2019-05-30T04:15:46.704Z,41.70
2019-05-30T04:18:16.477Z,41.87
2019-05-30T04:20:45.127Z,43.37
2019-05-30T04:23:14.819Z,41.00
2019-05-30T04:25:43.916Z,40.97
2019-05-30T04:28:14.012Z,43.17
2019-05-30T04:30:42.528Z,44.53
2019-05-30T04:33:19.381Z,41.60
2019-05-30T04:35:41.086Z,42.67
2019-05-30T04:38:10.468Z,39.93
2019-05-30T04:40:38.949Z,43.57
2019-05-30T04:43:09.023Z,43.00
2019-05-30T04:45:37.536Z,42.87
2019-05-30T04:48:06.030Z,41.07
2019-05-30T04:50:34.440Z,42.00
2019-05-30T04:53:02.893Z,40.73
2019-05-30T04:55:31.279Z,43.43
2019-05-30T04:57:59.712Z,41.37
2019-05-30T05:00:28.133Z,45.53
2019-05-30T05:02:56.558Z,41.97
2019-05-30T05:05:27.040Z,44.20
2019-05-30T05:07:55.136Z,42.03
2019-05-30T05:10:23.539Z,41.17
2019-05-30T05:12:51.967Z,44.53
2019-05-30T05:15:20.749Z,44.97
2019-05-30T05:17:49.349Z,41.07
2019-05-30T05:20:19.363Z,40.90
2019-05-30T05:22:47.910Z,40.93
2019-05-30T05:25:17.441Z,45.33
2019-05-30T05:27:46.017Z,41.00
2019-05-30T05:30:16.016Z,44.00
2019-05-30T05:32:44.564Z,39.77
2019-05-30T05:35:13.115Z,40.50
2019-05-30T05:37:41.515Z,42.13
2019-05-30T05:40:10.213Z,40.40
2019-05-30T05:42:38.626Z,43.20
2019-05-30T05:45:07.792Z,39.27
2019-05-30T05:47:36.202Z,39.37
2019-05-30T05:50:06.178Z,41.33
2019-05-30T05:52:34.576Z,38.53
2019-05-30T05:55:03.152Z,39.20
2019-05-30T05:57:31.588Z,38.40
2019-05-30T06:00:00.067Z,39.60
2019-05-30T06:02:28.474Z,38.20
2019-05-30T06:04:56.906Z,41.90
2019-05-30T06:07:25.399Z,40.93
2019-05-30T06:09:53.834Z,40.00
2019-05-30T06:12:22.236Z,38.83
2019-05-30T06:14:50.670Z,38.90
2019-05-30T06:17:19.087Z,41.47
2019-05-30T06:19:47.524Z,38.33
2019-05-30T06:22:15.924Z,39.40
2019-05-30T06:24:44.358Z,39.30
2019-05-30T06:27:12.764Z,40.30
2019-05-30T06:29:41.196Z,39.60
2019-05-30T06:32:09.607Z,38.30
2019-05-30T06:34:39.620Z,40.80
2019-05-30T06:37:11.801Z,38.37
2019-05-30T06:39:38.335Z,39.50
2019-05-30T06:42:06.723Z,38.27
2019-05-30T06:44:35.154Z,40.90
2019-05-30T06:47:03.556Z,38.17
2019-05-30T06:49:31.993Z,38.50
2019-05-30T06:52:00.390Z,38.80
2019-05-30T06:54:29.504Z,42.53
2019-05-30T06:56:58.103Z,42.30
2019-05-30T06:59:27.651Z,38.63
2019-05-30T07:01:56.190Z,40.10
2019-05-30T07:04:25.501Z,44.40
2019-05-30T07:06:54.981Z,38.27
2019-05-30T07:09:24.872Z,41.40
2019-05-30T07:11:53.446Z,39.63
2019-05-30T07:14:23.018Z,41.30
2019-05-30T07:16:51.531Z,38.73
2019-05-30T07:19:19.939Z,39.30
2019-05-30T07:21:48.372Z,40.10
2019-05-30T07:24:16.776Z,38.97
2019-05-30T07:26:45.210Z,39.30
2019-05-30T07:29:13.618Z,39.13
2019-05-30T07:31:42.057Z,40.40
2019-05-30T07:34:10.462Z,40.40
2019-05-30T07:36:38.888Z,39.10
2019-05-30T07:39:08.535Z,40.77
2019-05-30T07:41:37.332Z,38.43
2019-05-30T07:44:05.800Z,44.40
2019-05-30T07:46:35.127Z,39.70
2019-05-30T07:49:03.788Z,41.73
2019-05-30T07:51:32.684Z,40.10
2019-05-30T07:54:01.199Z,39.80
2019-05-30T07:56:29.634Z,38.40
2019-05-30T07:58:58.039Z,37.80
2019-05-30T08:01:26.463Z,39.90
2019-05-30T08:03:54.867Z,38.73
2019-05-30T08:06:23.303Z,39.50
2019-05-30T08:08:51.711Z,38.50
2019-05-30T08:11:20.141Z,38.97
2019-05-30T08:13:48.554Z,39.57
2019-05-30T08:16:16.958Z,39.47
2019-05-30T08:18:45.387Z,38.90
2019-05-30T08:21:13.789Z,41.50
2019-05-30T08:23:42.294Z,39.30
2019-05-30T08:26:10.698Z,40.30
2019-05-30T08:28:42.473Z,38.67
2019-05-30T08:31:09.260Z,42.07
2019-05-30T08:33:37.723Z,44.07
2019-05-30T08:36:06.153Z,38.17
2019-05-30T08:38:35.319Z,43.53
2019-05-30T08:41:03.987Z,39.80
2019-05-30T08:43:33.399Z,40.70
2019-05-30T08:46:01.899Z,41.47
2019-05-30T08:48:30.332Z,40.10
2019-05-30T08:50:58.780Z,43.50
2019-05-30T08:53:27.273Z,39.77
2019-05-30T08:55:55.809Z,38.37
2019-05-30T08:58:24.277Z,37.97
2019-05-30T09:00:52.684Z,38.97
2019-05-30T09:03:21.117Z,38.27
2019-05-30T09:06:02.686Z,38.30
2019-05-30T09:08:20.542Z,38.50
2019-05-30T09:10:48.951Z,39.93
2019-05-30T09:13:17.399Z,43.90
2019-05-30T09:15:46.979Z,42.20
2019-05-30T09:18:15.670Z,39.83
2019-05-30T09:20:45.202Z,40.63
2019-05-30T09:23:13.785Z,40.80
2019-05-30T09:25:42.193Z,40.97
2019-05-30T09:28:10.618Z,38.17
2019-05-30T09:30:39.890Z,38.40
2019-05-30T09:33:09.248Z,38.40
2019-05-30T09:35:38.496Z,38.13
2019-05-30T09:38:07.951Z,38.17
2019-05-30T09:40:36.361Z,39.40
2019-05-30T09:43:04.927Z,38.17
2019-05-30T09:45:34.168Z,37.87
2019-05-30T09:48:02.568Z,37.97
2019-05-30T09:50:31.002Z,37.37
2019-05-30T09:52:59.412Z,37.20
2019-05-30T09:55:27.912Z,38.03
2019-05-30T09:57:56.323Z,41.07
2019-05-30T10:00:26.441Z,38.80
2019-05-30T10:02:54.857Z,38.13
2019-05-30T10:05:24.640Z,38.17
2019-05-30T10:07:53.427Z,39.90
2019-05-30T10:10:22.692Z,38.50
2019-05-30T10:12:52.493Z,39.53
2019-05-30T10:15:21.444Z,41.83
2019-05-30T10:17:52.331Z,38.03
2019-05-30T10:20:20.243Z,37.47
2019-05-30T10:22:50.496Z,39.27
2019-05-30T10:25:18.879Z,40.10
2019-05-30T10:27:48.867Z,41.23
2019-05-30T10:30:17.979Z,39.33
2019-05-30T10:32:48.186Z,39.37
2019-05-30T10:35:16.830Z,39.43
2019-05-30T10:37:46.750Z,42.30
2019-05-30T10:40:16.995Z,37.97
2019-05-30T10:42:47.296Z,42.03
2019-05-30T10:45:18.726Z,39.33
2019-05-30T10:47:47.504Z,38.50
2019-05-30T10:50:17.179Z,40.10
2019-05-30T10:52:45.590Z,39.93
2019-05-30T10:55:14.979Z,38.53
2019-05-30T10:57:43.455Z,43.53
2019-05-30T11:00:14.369Z,40.83
2019-05-30T11:02:42.864Z,40.53
2019-05-30T11:05:12.538Z,39.27
2019-05-30T11:08:03.443Z,38.80
2019-05-30T11:10:37.848Z,38.57
2019-05-30T11:13:08.336Z,43.23
2019-05-30T11:15:36.790Z,38.87
2019-05-30T11:18:05.491Z,38.90
2019-05-30T11:20:33.892Z,40.20
2019-05-30T11:23:02.326Z,41.37
2019-05-30T11:25:31.770Z,39.17
2019-05-30T11:28:00.200Z,40.23
2019-05-30T11:30:29.339Z,41.70
2019-05-30T11:32:59.124Z,40.37
2019-05-30T11:35:27.962Z,39.40
2019-05-30T11:37:57.258Z,38.67
2019-05-30T11:40:25.754Z,39.10
2019-05-30T11:42:55.351Z,41.27
2019-05-30T11:45:24.315Z,39.40
2019-05-30T11:47:53.791Z,40.20
2019-05-30T11:50:22.569Z,41.53
2019-05-30T11:52:51.690Z,39.60
2019-05-30T11:55:20.343Z,40.10
2019-05-30T11:57:49.869Z,40.20
2019-05-30T12:00:18.742Z,39.60
2019-05-30T12:02:47.165Z,38.97
2019-05-30T12:05:16.005Z,42.40
2019-05-30T12:07:44.504Z,39.37
2019-05-30T12:10:13.247Z,44.63
2019-05-30T12:12:41.672Z,42.23
2019-05-30T12:15:10.607Z,39.73
2019-05-30T12:17:39.040Z,40.40
2019-05-30T12:20:09.083Z,39.87
2019-05-30T12:22:37.517Z,41.00
2019-05-30T12:25:07.566Z,39.43
2019-05-30T12:27:36.072Z,41.37
2019-05-30T12:30:06.788Z,42.13
2019-05-30T12:32:35.196Z,41.40
2019-05-30T12:35:04.912Z,41.07
2019-05-30T12:37:33.320Z,39.00
2019-05-30T12:40:03.088Z,43.43
2019-05-30T12:42:31.637Z,40.10
2019-05-30T12:45:05.462Z,40.27
2019-05-30T12:47:30.203Z,40.27
2019-05-30T12:49:59.323Z,39.77
2019-05-30T12:52:27.811Z,41.97
2019-05-30T12:54:56.419Z,39.33
2019-05-30T12:57:24.827Z,43.07
2019-05-30T12:59:54.631Z,38.40
2019-05-30T13:02:23.140Z,41.03
2019-05-30T13:04:51.570Z,40.20
2019-05-30T13:07:19.972Z,40.23
2019-05-30T13:09:48.406Z,41.77
2019-05-30T13:12:16.817Z,41.43
2019-05-30T13:14:45.242Z,39.93
2019-05-30T13:17:13.650Z,38.53
2019-05-30T13:19:42.160Z,40.17
2019-05-30T13:22:10.555Z,46.87
2019-05-30T13:24:38.985Z,40.67
2019-05-30T13:27:07.409Z,41.30
2019-05-30T13:29:35.834Z,42.37
2019-05-30T13:32:04.625Z,41.77
2019-05-30T13:34:33.158Z,40.40
2019-05-30T13:37:02.907Z,39.80
2019-05-30T13:39:31.539Z,39.10
2019-05-30T13:41:59.943Z,40.20
2019-05-30T13:44:28.375Z,38.30
2019-05-30T13:46:56.778Z,38.90
2019-05-30T13:49:25.208Z,39.50
2019-05-30T13:51:53.615Z,41.10
2019-05-30T13:54:22.041Z,39.53
2019-05-30T13:56:50.449Z,38.00
2019-05-30T13:59:18.881Z,40.57
2019-05-30T14:01:47.285Z,38.60
2019-05-30T14:04:15.738Z,41.00
2019-05-30T14:06:44.145Z,40.37
2019-05-30T14:09:12.554Z,38.20
2019-05-30T14:11:40.986Z,40.00
2019-05-30T14:14:09.390Z,38.20
2019-05-30T14:16:37.823Z,40.33
2019-05-30T14:19:10.830Z,38.87
2019-05-30T14:21:36.389Z,40.23
2019-05-30T14:24:05.344Z,39.27
2019-05-30T14:26:33.869Z,40.70
2019-05-30T14:29:03.631Z,38.60
2019-05-30T14:31:32.355Z,39.07
2019-05-30T14:34:01.982Z,40.07
2019-05-30T14:36:30.572Z,39.27
2019-05-30T14:38:59.250Z,39.93
2019-05-30T14:41:27.689Z,41.17
2019-05-30T14:43:56.108Z,43.20
2019-05-30T14:46:24.529Z,41.50
2019-05-30T14:48:52.938Z,41.00
2019-05-30T14:51:21.383Z,40.27
2019-05-30T14:53:49.798Z,41.97
2019-05-30T14:56:18.231Z,41.83
2019-05-30T14:58:46.712Z,39.87
2019-05-30T15:01:15.149Z,43.20
2019-05-30T15:03:43.559Z,42.40
2019-05-30T15:06:15.341Z,42.93
2019-05-30T15:08:42.321Z,41.30
2019-05-30T15:11:11.746Z,40.40
2019-05-30T15:13:40.253Z,40.97
2019-05-30T15:16:08.847Z,41.73
2019-05-30T15:18:37.283Z,40.53
2019-05-30T15:21:06.277Z,40.70
2019-05-30T15:23:34.819Z,41.00
2019-05-30T15:26:03.567Z,39.57
2019-05-30T15:28:32.002Z,40.60
2019-05-30T15:31:00.414Z,41.30
2019-05-30T15:33:28.846Z,41.10
2019-05-30T15:35:57.254Z,42.53
2019-05-30T15:38:25.702Z,41.17
2019-05-30T15:40:54.106Z,42.27
2019-05-30T15:43:22.537Z,41.47
2019-05-30T15:45:50.948Z,40.97
2019-05-30T15:48:19.390Z,43.23
2019-05-30T15:50:47.806Z,40.80
2019-05-30T15:53:17.265Z,41.40
2019-05-30T15:55:45.904Z,40.07
2019-05-30T15:58:15.617Z,41.70
2019-05-30T16:00:44.238Z,39.73
2019-05-30T16:03:12.675Z,42.70
2019-05-30T16:05:41.085Z,41.07
2019-05-30T16:08:10.656Z,41.83
2019-05-30T16:10:39.108Z,40.70
2019-05-30T16:13:07.547Z,39.60
2019-05-30T16:15:35.953Z,39.30
2019-05-30T16:18:04.530Z,42.40
2019-05-30T16:20:32.930Z,40.40
2019-05-30T16:23:01.369Z,40.90
2019-05-30T16:25:29.772Z,45.70
2019-05-30T16:27:58.207Z,40.00
2019-05-30T16:30:27.104Z,39.60
2019-05-30T16:32:55.700Z,43.50
2019-05-30T16:35:24.106Z,41.40
2019-05-30T16:37:52.539Z,40.00
2019-05-30T16:40:22.320Z,41.70
2019-05-30T16:42:50.906Z,41.10
2019-05-30T16:45:24.629Z,42.87
2019-05-30T16:47:50.234Z,40.67
2019-05-30T16:50:22.761Z,42.00
2019-05-30T16:52:51.337Z,39.73
2019-05-30T16:55:19.845Z,40.50
2019-05-30T16:57:48.250Z,39.73
2019-05-30T17:00:17.656Z,40.47
2019-05-30T17:02:46.142Z,40.30
2019-05-30T17:05:15.857Z,42.23
2019-05-30T17:07:44.327Z,40.20
2019-05-30T17:10:23.393Z,39.60
2019-05-30T17:12:43.927Z,41.17
2019-05-30T17:15:13.525Z,42.03
2019-05-30T17:17:41.940Z,40.77
2019-05-30T17:20:12.813Z,41.20
2019-05-30T17:22:41.236Z,42.00
2019-05-30T17:25:11.605Z,41.67
2019-05-30T17:27:40.012Z,46.10
2019-05-30T17:30:10.747Z,42.93
2019-05-30T17:32:39.165Z,43.33
2019-05-30T17:35:08.135Z,41.97
2019-05-30T17:37:36.551Z,45.10
2019-05-30T17:40:06.995Z,47.47
2019-05-30T17:42:35.566Z,45.67
2019-05-30T17:45:06.587Z,44.47
2019-05-30T17:47:34.985Z,42.60
2019-05-30T17:50:04.864Z,43.07
2019-05-30T17:52:33.269Z,43.00
2019-05-30T17:55:01.703Z,42.47
2019-05-30T17:57:30.302Z,42.23
2019-05-30T17:59:58.760Z,42.63
2019-05-30T18:02:28.489Z,44.17
2019-05-30T18:04:57.090Z,43.07
2019-05-30T18:07:25.517Z,44.13
2019-05-30T18:09:55.306Z,43.07
2019-05-30T18:12:25.097Z,42.90
2019-05-30T18:14:53.626Z,44.57
2019-05-30T18:17:23.077Z,42.63
2019-05-30T18:19:51.734Z,42.20
2019-05-30T18:22:21.438Z,42.60
2019-05-30T18:24:50.038Z,44.13
2019-05-30T18:27:18.471Z,43.37
2019-05-30T18:29:46.889Z,45.80
2019-05-30T18:32:15.386Z,47.53
2019-05-30T18:34:43.797Z,46.63
2019-05-30T18:37:12.245Z,47.23
2019-05-30T18:39:40.650Z,45.03
2019-05-30T18:42:09.154Z,44.90
2019-05-30T18:44:37.564Z,48.20
2019-05-30T18:47:05.994Z,47.30
2019-05-30T18:49:34.406Z,49.27
2019-05-30T18:52:02.845Z,49.20
2019-05-30T18:54:31.265Z,45.10
2019-05-30T18:56:59.690Z,46.90
2019-05-30T18:59:29.025Z,46.83
2019-05-30T19:01:57.508Z,46.67
2019-05-30T19:04:25.931Z,47.70
2019-05-30T19:06:54.346Z,47.67
2019-05-30T19:09:22.762Z,45.40
2019-05-30T19:11:51.194Z,46.00
2019-05-30T19:14:19.606Z,48.70
2019-05-30T19:16:48.035Z,46.40
2019-05-30T19:19:16.444Z,46.50
2019-05-30T19:21:44.887Z,48.53
2019-05-30T19:24:13.320Z,47.80
2019-05-30T19:26:41.729Z,47.27
2019-05-30T19:29:10.171Z,50.20
2019-05-30T19:31:38.588Z,49.70
2019-05-30T19:34:07.023Z,47.07
2019-05-30T19:36:35.428Z,46.67
2019-05-30T19:39:05.328Z,48.17
2019-05-30T19:41:45.326Z,48.17
2019-05-30T19:44:04.240Z,48.60
2019-05-30T19:46:32.648Z,49.70
2019-05-30T19:49:01.086Z,47.40
2019-05-30T19:51:31.352Z,48.70
2019-05-30T19:53:59.647Z,48.63
2019-05-30T19:56:29.114Z,49.60
2019-05-30T19:58:57.676Z,56.60
2019-05-30T20:01:26.087Z,49.53
2019-05-30T20:03:54.515Z,50.53
2019-05-30T20:06:24.818Z,50.27
2019-05-30T20:08:55.853Z,48.60
2019-05-30T20:11:23.223Z,50.60
2019-05-30T20:13:51.664Z,51.97
2019-05-30T20:16:20.087Z,52.07
2019-05-30T20:18:48.527Z,53.40
2019-05-30T20:21:16.937Z,51.07
2019-05-30T20:23:52.443Z,53.63
2019-05-30T20:26:15.519Z,55.50
2019-05-30T20:28:43.953Z,50.60
2019-05-30T20:31:12.369Z,52.07
2019-05-30T20:33:40.814Z,55.27
2019-05-30T20:36:09.225Z,54.83
2019-05-30T20:38:38.651Z,53.97
2019-05-30T20:41:07.153Z,52.50
2019-05-30T20:43:36.883Z,56.30
2019-05-30T20:46:05.553Z,54.47
2019-05-30T20:48:34.962Z,52.07
2019-05-30T20:51:03.395Z,53.67
2019-05-30T20:53:31.831Z,55.63
2019-05-30T20:56:00.247Z,53.97
2019-05-30T20:58:28.681Z,57.40
2019-05-30T21:00:57.102Z,55.50
2019-05-30T21:03:25.510Z,54.17
2019-05-30T21:05:54.313Z,53.67
2019-05-30T21:08:22.796Z,53.30
2019-05-30T21:10:51.911Z,54.30
2019-05-30T21:13:20.394Z,57.80
2019-05-30T21:15:49.198Z,59.00
2019-05-30T21:18:19.549Z,56.37
2019-05-30T21:20:48.071Z,57.63
2019-05-30T21:23:16.480Z,53.47
2019-05-30T21:25:45.233Z,57.37
2019-05-30T21:28:13.726Z,57.30
2019-05-30T21:30:43.322Z,58.50
2019-05-30T21:33:11.951Z,56.77
2019-05-30T21:35:41.689Z,57.00
2019-05-30T21:38:10.365Z,56.10
2019-05-30T21:40:39.202Z,57.27
2019-05-30T21:43:08.794Z,57.13
2019-05-30T21:45:38.406Z,62.93
2019-05-30T21:48:07.030Z,61.57
2019-05-30T21:50:35.481Z,56.60
2019-05-30T21:53:04.181Z,57.93
2019-05-30T21:55:32.678Z,59.57
2019-05-30T21:58:01.094Z,59.83
2019-05-30T22:00:48.570Z,59.87
2019-05-30T22:03:17.311Z,61.20
2019-05-30T22:05:47.930Z,59.57
2019-05-30T22:08:15.898Z,59.20
2019-05-30T22:10:45.396Z,58.80
2019-05-30T22:13:13.927Z,59.27
2019-05-30T22:15:43.652Z,58.40
2019-05-30T22:18:12.123Z,60.10
2019-05-30T22:20:41.722Z,60.07
2019-05-30T22:23:11.099Z,61.67
2019-05-30T22:25:39.679Z,60.73
2019-05-30T22:28:08.091Z,63.00
2019-05-30T22:30:36.591Z,60.30
2019-05-30T22:33:05.091Z,61.20
2019-05-30T22:35:33.530Z,60.03
2019-05-30T22:38:01.948Z,63.33
2019-05-30T22:40:30.390Z,60.50
2019-05-30T22:42:58.798Z,61.07
2019-05-30T22:45:27.239Z,59.37
2019-05-30T22:47:56.779Z,61.17
2019-05-30T22:50:25.365Z,61.10
2019-05-30T22:52:57.205Z,58.07
2019-05-30T22:55:25.636Z,61.40
2019-05-30T22:57:54.080Z,62.50
2019-05-30T23:00:22.563Z,60.57
2019-05-30T23:02:51.938Z,62.27
2019-05-30T23:05:20.567Z,61.17
2019-05-30T23:07:49.418Z,60.03
2019-05-30T23:10:18.037Z,60.83
2019-05-30T23:12:47.640Z,59.20
2019-05-30T23:15:16.339Z,60.20
2019-05-30T23:17:44.779Z,64.40
2019-05-30T23:20:13.261Z,63.33
2019-05-30T23:22:41.699Z,60.50
2019-05-30T23:25:10.462Z,59.47
2019-05-30T23:27:38.897Z,61.33
2019-05-30T23:30:07.750Z,64.00
2019-05-30T23:32:36.189Z,60.20
2019-05-30T23:35:05.341Z,59.13
2019-05-30T23:37:33.844Z,64.57
2019-05-30T23:40:02.328Z,62.30
2019-05-30T23:42:30.764Z,62.07
2019-05-30T23:44:59.611Z,60.50
2019-05-30T23:47:28.282Z,63.60
2019-05-30T23:49:58.095Z,61.07
2019-05-30T23:52:26.674Z,63.17
2019-05-30T23:54:56.226Z,63.23
2019-05-30T23:57:24.906Z,62.97
2019-05-30T23:59:54.643Z,63.07
